This is the latest recevied weather packets stored in our database for station/object N3FYI-5. If no packets are shown the sender has not sent any weather packets the latest 10 day(s).
| Time | Temp. | Humidity | Pressure | Rain* | Wind** | Luminosity | Snow |
|---|---|---|---|---|---|---|---|
| 1777668956 | 5° C | 84% | 1021.6 hPa | 0.76 mm | - | - | - |
| 1777667516 | 5° C | 85% | 1021.8 hPa | 0.76 mm | - | - | - |
| 1777666556 | 5° C | 84% | 1021.9 hPa | 1.02 mm | - | - | - |
| 1777666077 | 5° C | 85% | 1021.8 hPa | 1.27 mm | - | - | - |
| 1777665598 | 5° C | 86% | 1021.9 hPa | 1.02 mm | - | - | - |
| 1777665116 | 5.56° C | 86% | 1021.9 hPa | 1.27 mm | - | - | - |
| 1777664156 | 5.56° C | 86% | 1022.1 hPa | 1.02 mm | - | - | - |
| 1777663676 | 5.56° C | 86% | 1022.1 hPa | 1.02 mm | - | - | - |
| 1777661755 | 7.22° C | 75% | 1022.3 hPa | 0 mm | - | - | - |
| 1777660315 | 8.33° C | 64% | 1022.2 hPa | 0 mm | - | - | - |
| 1777659837 | 8.89° C | 64% | 1022.1 hPa | 0 mm | - | - | - |
| 1777659355 | 8.89° C | 63% | 1022 hPa | 0 mm | - | - | - |
| 1777658625 | 8.89° C | 61% | 1022 hPa | 0 mm | - | - | - |
| 1777658145 | 9.44° C | 61% | 1022.1 hPa | 0 mm | - | - | - |
| 1777656705 | 8.33° C | 65% | 1022.1 hPa | 0 mm | - | - | - |
| 1777656225 | 8.33° C | 63% | 1022.3 hPa | 0 mm | - | - | - |
| 1777655745 | 8.33° C | 63% | 1022.4 hPa | 0 mm | - | - | - |
| 1777654315 | 8.33° C | 62% | 1022.5 hPa | 0 mm | - | - | - |
| 1777653825 | 7.78° C | 62% | 1022.6 hPa | 0 mm | - | - | - |
| 1777653346 | 8.33° C | 62% | 1022.8 hPa | 0 mm | - | - | - |
| 1777652870 | 7.78° C | 58% | 1022.9 hPa | 0 mm | - | - | - |
| 1777651904 | 8.33° C | 59% | 1022.9 hPa | 0 mm | - | - | - |
| 1777651427 | 8.33° C | 58% | 1023 hPa | 0 mm | - | - | - |
| 1777650947 | 8.33° C | 57% | 1023 hPa | 0 mm | - | - | - |
| 1777649984 | 8.33° C | 62% | 1023.2 hPa | 0 mm | - | - | - |
* Rain latest hour (hover to see other rain measurements)
** Current wind speed in m/s (hover to see current wind gust speed)